Time;durP1;ratioP1;P1;durP2;ratioP2;P2;SDS_P1;SDS_P2;PMS_P1;PMS_P2;Temp;Humidity;BMP_temperature;BMP_pressure;BME280_temperature;BME280_humidity;BME280_pressure;Samples;Min_cycle;Max_cycle;Signal;HPM_P1;HPM_P2
2023/07/08 00:00:48;;;;;;;;;;;;;;;23.56;36.57;99860.75;1084422;47;19947;-80
2023/07/08 00:01:51;;;;;;;;;;;;;;;23.53;37.10;99862.03;1084107;47;19962;-80
2023/07/08 00:02:52;;;;;;;;;;;;;;;23.53;36.37;99856.56;1084238;47;19950;-81
2023/07/08 00:03:55;;;;;;;;;;;;;;;23.57;36.55;99856.09;1084182;47;19950;-81
2023/07/08 00:04:56;;;;;;;;;;;;;;;23.56;36.46;99860.75;1084186;47;19953;-81
2023/07/08 00:05:59;;;;;;;;;;;;;;;23.51;37.12;99853.25;1084148;54;20032;-80
2023/07/08 00:07:00;;;;;;;;;;;;;;;23.48;37.28;99855.59;1083933;54;19957;-80
2023/07/08 00:08:03;;;;;;;;;;;;;;;23.44;37.30;99849.78;1084298;54;19974;-81
2023/07/08 00:09:07;;;;;;;;;;;;;;;23.41;37.22;99854.88;1084174;47;19984;-80
2023/07/08 00:10:14;;;;;;;;;;;;;;;23.42;36.98;99854.69;1084671;54;19973;-81
2023/07/08 00:11:15;;;;;;;;;;;;;;;23.45;36.56;99854.19;1084488;47;20050;-80
2023/07/08 00:12:18;;;;;;;;;;;;;;;23.49;36.86;99860.00;1084361;54;19998;-81
2023/07/08 00:13:19;;;;;;;;;;;;;;;23.49;36.92;99854.53;1084254;54;19958;-81
2023/07/08 00:14:22;;;;;;;;;;;;;;;23.51;36.68;99852.41;1084663;54;20081;-81
2023/07/08 00:15:25;;;;;;;;;;;;;;;23.49;36.69;99847.22;1084594;47;19951;-81
2023/07/08 00:16:31;;;;;;;;;;;;;;;23.49;36.88;99855.38;1084633;47;20014;-81
2023/07/08 00:17:32;;;;;;;;;;;;;;;23.44;37.19;99843.53;1085657;39;20633;-81
2023/07/08 00:18:35;;;;;;;;;;;;;;;23.40;37.39;99845.88;1084303;54;19950;-81
2023/07/08 00:19:36;;;;;;;;;;;;;;;23.38;37.49;99841.75;1084659;47;19980;-81
2023/07/08 00:20:41;;;;;;;;;;;;;;;23.32;37.40;99838.88;1084646;54;19951;-80
2023/07/08 00:21:42;;;;;;;;;;;;;;;23.29;37.42;99849.41;1084517;54;19947;-82
2023/07/08 00:22:46;;;;;;;;;;;;;;;23.26;37.93;99844.41;1084591;54;19947;-81
2023/07/08 00:23:48;;;;;;;;;;;;;;;23.21;37.86;99836.94;1084869;54;19947;-80
2023/07/08 00:24:51;;;;;;;;;;;;;;;23.10;37.70;99845.88;1084683;54;19971;-81
2023/07/08 00:25:52;;;;;;;;;;;;;;;23.11;38.16;99848.41;1085054;47;19974;-81
2023/07/08 00:26:55;;;;;;;;;;;;;;;23.10;37.80;99846.72;1084673;47;19946;-81
2023/07/08 00:27:56;;;;;;;;;;;;;;;23.11;37.60;99847.56;1084701;47;20043;-81
2023/07/08 00:28:57;;;;;;;;;;;;;;;23.12;38.04;99850.06;1084931;47;20016;-81
2023/07/08 00:30:00;;;;;;;;;;;;;;;23.09;38.72;99845.06;1085212;47;19970;-81
2023/07/08 00:31:01;;;;;;;;;;;;;;;23.09;38.28;99841.53;1084971;54;19951;-82
2023/07/08 00:32:10;;;;;;;;;;;;;;;23.04;38.59;99850.41;1085102;47;19954;-82
2023/07/08 00:33:11;;;;;;;;;;;;;;;22.75;38.87;99840.09;1085109;54;19950;-81
2023/07/08 00:34:15;;;;;;;;;;;;;;;22.69;38.83;99840.16;1085154;47;20964;-80
2023/07/08 00:35:16;;;;;;;;;;;;;;;22.75;38.77;99842.00;1084758;47;19951;-81
2023/07/08 00:36:19;;;;;;;;;;;;;;;22.63;39.20;99841.09;1084855;47;20045;-79
2023/07/08 00:37:20;;;;;;;;;;;;;;;22.37;39.69;99843.88;1084550;47;19946;-82
2023/07/08 00:38:26;;;;;;;;;;;;;;;22.38;39.84;99842.84;1085520;31;20673;-81
2023/07/08 00:39:27;;;;;;;;;;;;;;;22.37;39.83;99835.72;1084992;54;19973;-81
2023/07/08 00:40:31;;;;;;;;;;;;;;;22.41;39.62;99834.25;1085213;54;19975;-81
2023/07/08 00:41:33;;;;;;;;;;;;;;;22.49;39.05;99835.00;1085436;54;20792;-81
2023/07/08 00:42:34;;;;;;;;;;;;;;;22.55;39.24;99844.97;1084438;47;19955;-81
2023/07/08 00:43:39;;;;;;;;;;;;;;;22.55;39.58;99843.09;1084770;47;19957;-81
2023/07/08 00:44:41;;;;;;;;;;;;;;;22.56;38.84;99847.47;1084708;46;19975;-81
2023/07/08 00:45:48;;;;;;;;;;;;;;;22.52;39.91;99840.81;1084837;54;21077;-80
2023/07/08 00:46:56;;;;;;;;;;;;;;;22.56;39.69;99852.91;1084818;47;19950;-81
2023/07/08 00:48:05;;;;;;;;;;;;;;;22.49;39.85;99851.34;1085016;54;19954;-81
2023/07/08 00:49:15;;;;;;;;;;;;;;;22.37;40.00;99865.66;1085200;47;19950;-81
2023/07/08 00:50:19;;;;;;;;;;;;;;;22.42;39.32;99856.84;1085176;47;19954;-81
2023/07/08 00:51:21;;;;;;;;;;;;;;;22.40;39.86;99853.50;1085099;54;19950;-80
2023/07/08 00:52:26;;;;;;;;;;;;;;;22.39;39.96;99860.00;1085246;54;19953;-81
2023/07/08 00:53:28;;;;;;;;;;;;;;;22.32;40.16;99853.78;1085171;54;19950;-81
2023/07/08 00:54:32;;;;;;;;;;;;;;;22.34;39.82;99854.41;1084982;47;19985;-81
2023/07/08 00:55:33;;;;;;;;;;;;;;;22.34;39.43;99860.66;1084559;47;19991;-80
2023/07/08 00:56:38;;;;;;;;;;;;;;;22.35;40.00;99856.88;1085057;47;20015;-81
2023/07/08 00:57:42;;;;;;;;;;;;;;;22.36;40.18;99864.00;1084938;54;19950;-81
2023/07/08 00:58:46;;;;;;;;;;;;;;;22.38;39.32;99861.06;1084924;47;20026;-80
2023/07/08 00:59:49;;;;;;;;;;;;;;;22.41;39.74;99866.06;1084785;47;19989;-81
2023/07/08 01:00:54;;;;;;;;;;;;;;;22.39;39.78;99862.72;1084975;47;19953;-81
2023/07/08 01:01:55;;;;;;;;;;;;;;;22.40;39.66;99872.56;1084863;47;19951;-82
2023/07/08 01:02:59;;;;;;;;;;;;;;;22.40;39.61;99873.44;1084634;47;19947;-81
2023/07/08 01:04:04;;;;;;;;;;;;;;;22.40;39.85;99872.56;1085078;54;19947;-81
2023/07/08 01:05:10;;;;;;;;;;;;;;;22.38;39.89;99883.69;1085252;54;19950;-81
2023/07/08 01:06:13;;;;;;;;;;;;;;;22.33;40.03;99882.69;1084557;47;20052;-81
2023/07/08 01:07:21;;;;;;;;;;;;;;;22.34;39.99;99887.06;1084601;54;20052;-80
2023/07/08 01:08:28;;;;;;;;;;;;;;;22.32;39.96;99886.47;1085648;39;20389;-81
2023/07/08 01:09:34;;;;;;;;;;;;;;;22.30;40.10;99886.69;1085313;54;19957;-81
2023/07/08 01:10:38;;;;;;;;;;;;;;;22.28;39.83;99884.22;1084928;47;19951;-81
2023/07/08 01:11:42;;;;;;;;;;;;;;;22.27;40.39;99881.69;1084752;47;19950;-81
2023/07/08 01:12:46;;;;;;;;;;;;;;;22.28;39.89;99886.94;1084887;47;19947;-81
2023/07/08 01:13:50;;;;;;;;;;;;;;;22.29;40.28;99885.03;1084699;54;19951;-81
2023/07/08 01:14:53;;;;;;;;;;;;;;;22.27;39.82;99878.97;1085041;47;20650;-81
2023/07/08 01:15:54;;;;;;;;;;;;;;;22.27;40.37;99890.72;1084780;47;20009;-81
2023/07/08 01:16:58;;;;;;;;;;;;;;;22.24;40.92;99877.53;1084508;47;19947;-81
2023/07/08 01:17:59;;;;;;;;;;;;;;;22.26;41.15;99886.31;1086229;39;20468;-81
2023/07/08 01:19:06;;;;;;;;;;;;;;;22.24;41.00;99883.00;1084532;47;20101;-81
2023/07/08 01:20:12;;;;;;;;;;;;;;;22.17;41.81;99882.25;1084193;47;20540;-80
2023/07/08 01:21:33;;;;;;;;;;;;;;;22.15;42.08;99883.53;1084951;54;19957;-81
2023/07/08 01:22:38;;;;;;;;;;;;;;;22.15;42.15;99878.91;1084742;47;19947;-80
2023/07/08 01:23:42;;;;;;;;;;;;;;;22.08;42.10;99878.16;1084986;47;19958;-80
2023/07/08 01:24:43;;;;;;;;;;;;;;;22.10;42.19;99873.31;1084571;54;19946;-81
2023/07/08 01:25:48;;;;;;;;;;;;;;;22.07;42.39;99871.84;1084822;54;19950;-81
2023/07/08 01:26:48;;;;;;;;;;;;;;;22.07;42.39;99871.03;1084813;47;20016;-81
2023/07/08 01:27:54;;;;;;;;;;;;;;;22.08;42.38;99867.25;1084696;47;20016;-81
2023/07/08 01:28:56;;;;;;;;;;;;;;;22.09;42.11;99871.66;1084733;47;20069;-80
2023/07/08 01:30:00;;;;;;;;;;;;;;;22.10;42.27;99870.59;1084158;47;19939;-81
2023/07/08 01:31:00;;;;;;;;;;;;;;;22.09;42.49;99868.94;1084539;54;19947;-81
2023/07/08 01:32:05;;;;;;;;;;;;;;;22.05;42.18;99862.25;1084310;47;19971;-80
2023/07/08 01:33:11;;;;;;;;;;;;;;;22.04;42.23;99861.44;1084350;47;19950;-81
2023/07/08 01:34:15;;;;;;;;;;;;;;;22.08;41.93;99867.25;1084852;39;20451;-80
2023/07/08 01:35:16;;;;;;;;;;;;;;;22.06;41.96;99861.19;1084424;54;19947;-82
2023/07/08 01:36:19;;;;;;;;;;;;;;;22.05;42.40;99860.38;1085342;54;20041;-83
2023/07/08 01:37:23;;;;;;;;;;;;;;;22.01;42.71;99866.50;1085353;47;19946;-83
2023/07/08 01:38:29;;;;;;;;;;;;;;;21.95;43.30;99863.59;1086055;39;20375;-82
2023/07/08 01:39:31;;;;;;;;;;;;;;;21.91;42.84;99861.56;1085643;47;19950;-82
2023/07/08 01:40:35;;;;;;;;;;;;;;;21.91;42.75;99870.56;1085221;47;19972;-81
2023/07/08 01:41:36;;;;;;;;;;;;;;;21.91;42.61;99862.41;1087839;39;20818;-82
2023/07/08 01:42:39;;;;;;;;;;;;;;;21.92;42.45;99868.66;1084959;47;19953;-82
2023/07/08 01:43:40;;;;;;;;;;;;;;;21.91;42.25;99870.56;1085216;39;20378;-81
2023/07/08 01:44:43;;;;;;;;;;;;;;;21.93;42.24;99868.44;1085112;47;19946;-81
2023/07/08 01:45:44;;;;;;;;;;;;;;;21.84;42.93;99867.06;1085174;47;19947;-80
2023/07/08 01:46:49;;;;;;;;;;;;;;;21.75;42.66;99873.84;1085390;47;19950;-81
2023/07/08 01:47:51;;;;;;;;;;;;;;;21.77;42.63;99871.72;1085188;54;20595;-81
2023/07/08 01:48:55;;;;;;;;;;;;;;;21.77;42.51;99863.56;1085310;47;20669;-82
2023/07/08 01:49:57;;;;;;;;;;;;;;;21.73;42.29;99870.50;1085424;46;19962;-82
2023/07/08 01:51:03;;;;;;;;;;;;;;;21.75;42.25;99869.25;1085615;54;19942;-81
2023/07/08 01:52:04;;;;;;;;;;;;;;;21.77;42.16;99864.38;1085474;54;19951;-82
2023/07/08 01:53:08;;;;;;;;;;;;;;;21.73;42.52;99865.06;1085699;47;19953;-82
2023/07/08 01:54:15;;;;;;;;;;;;;;;21.74;42.30;99867.56;1085497;47;19951;-82
2023/07/08 01:55:20;;;;;;;;;;;;;;;21.78;42.13;99857.91;1085196;54;20585;-81
2023/07/08 01:56:23;;;;;;;;;;;;;;;21.75;42.19;99857.50;1085968;39;20443;-81
2023/07/08 01:57:24;;;;;;;;;;;;;;;21.75;41.92;99866.53;1085679;54;20949;-81
2023/07/08 01:58:28;;;;;;;;;;;;;;;21.74;42.15;99866.72;1085824;47;19950;-80
2023/07/08 01:59:29;;;;;;;;;;;;;;;21.75;41.89;99869.25;1087555;39;20698;-83
2023/07/08 02:00:32;;;;;;;;;;;;;;;21.74;42.17;99869.44;1085709;47;19938;-81
2023/07/08 02:01:33;;;;;;;;;;;;;;;21.73;41.88;99870.50;1085407;47;19946;-80
2023/07/08 02:02:36;;;;;;;;;;;;;;;21.71;42.22;99872.63;1085563;54;19946;-81
2023/07/08 02:03:37;;;;;;;;;;;;;;;21.71;42.57;99865.28;1085712;54;19950;-82
2023/07/08 02:04:40;;;;;;;;;;;;;;;21.62;43.21;99863.91;1085912;54;20565;-82
2023/07/08 02:05:41;;;;;;;;;;;;;;;21.64;42.93;99869.97;1086747;47;19946;-82
2023/07/08 02:06:45;;;;;;;;;;;;;;;21.62;43.48;99875.63;1086254;46;19946;-82
2023/07/08 02:07:48;;;;;;;;;;;;;;;21.62;43.29;99874.78;1085937;47;19975;-82
2023/07/08 02:08:51;;;;;;;;;;;;;;;21.60;43.42;99874.16;1085574;47;19979;-83
2023/07/08 02:09:55;;;;;;;;;;;;;;;21.58;43.61;99877.13;1085738;47;20462;-84
2023/07/08 02:10:59;;;;;;;;;;;;;;;21.58;43.63;99868.09;1086037;54;19954;-83
2023/07/08 02:12:00;;;;;;;;;;;;;;;21.57;43.96;99867.25;1086240;47;19949;-80
2023/07/08 02:13:03;;;;;;;;;;;;;;;;;;1086961;54;19949;-82
2023/07/08 02:14:04;;;;;;;;;;;;;;;21.51;44.17;99862.72;1086683;46;19969;-82
2023/07/08 02:15:05;;;;;;;;;;;;;;;21.48;44.06;99858.56;1086569;51;19947;-81
2023/07/08 02:16:09;;;;;;;;;;;;;;;21.47;44.08;99861.47;1086281;47;19950;-83
2023/07/08 02:17:09;;;;;;;;;;;;;;;21.48;44.03;99857.72;1085868;47;19954;-82
2023/07/08 02:18:13;;;;;;;;;;;;;;;21.47;43.62;99858.75;1085512;47;19946;-82
2023/07/08 02:19:14;;;;;;;;;;;;;;;21.47;43.76;99856.03;1085898;46;19981;-82
2023/07/08 02:20:17;;;;;;;;;;;;;;;21.45;44.40;99858.16;1085797;47;20547;-83
2023/07/08 02:21:18;;;;;;;;;;;;;;;21.38;44.54;99857.38;1086793;31;20558;-82
2023/07/08 02:22:22;;;;;;;;;;;;;;;21.23;44.76;99849.53;1086709;47;19946;-83
2023/07/08 02:23:23;;;;;;;;;;;;;;;21.14;44.84;99854.41;1087257;39;21212;-85
2023/07/08 02:24:26;;;;;;;;;;;;;;;21.08;45.30;99847.97;1087011;47;19938;-84
2023/07/08 02:25:30;;;;;;;;;;;;;;;20.98;45.37;99853.88;1087176;47;19938;-85
2023/07/08 02:26:34;;;;;;;;;;;;;;;20.95;45.03;99851.59;1086964;47;19950;-83
2023/07/08 02:27:35;;;;;;;;;;;;;;;20.93;44.87;99850.97;1086981;54;19973;-83
2023/07/08 02:28:38;;;;;;;;;;;;;;;20.89;45.02;99852.44;1086945;54;19942;-84
2023/07/08 02:29:40;;;;;;;;;;;;;;;20.87;44.87;99847.25;1087051;47;19942;-83
2023/07/08 02:30:41;;;;;;;;;;;;;;;20.80;45.48;99851.88;1086470;47;19942;-81
2023/07/08 02:31:44;;;;;;;;;;;;;;;20.82;45.32;99857.94;1086482;47;19945;-82
2023/07/08 02:32:56;;;;;;;;;;;;;;;20.92;44.64;99859.34;1086119;47;19947;-84
2023/07/08 02:34:01;;;;;;;;;;;;;;;20.99;44.47;99858.25;1086783;54;19954;-82
2023/07/08 02:35:03;;;;;;;;;;;;;;;21.02;44.64;99855.09;1086607;54;19950;-82
2023/07/08 02:36:08;;;;;;;;;;;;;;;21.03;44.54;99854.06;1087032;47;19956;-83
2023/07/08 02:37:10;;;;;;;;;;;;;;;21.08;44.42;99863.41;1087666;47;19942;-83
2023/07/08 07:48:57;;;;;;;;;;;;;;;26.42;33.51;99997.38;1086548;54;20006;-87
2023/07/08 07:49:59;;;;;;;;;;;;;;;26.51;33.71;99992.28;1087155;47;19966;-87
2023/07/08 07:51:02;;;;;;;;;;;;;;;26.55;33.58;99994.25;1087080;54;19942;-86
2023/07/08 07:52:03;;;;;;;;;;;;;;;26.75;33.56;99995.63;1087129;47;19942;-87
2023/07/08 07:53:06;;;;;;;;;;;;;;;26.77;33.22;99994.34;1087060;47;20021;-88
2023/07/08 08:00:40;;;;;;;;;;;;;;;27.12;32.93;100007.91;1086834;54;19998;-87
2023/07/08 08:01:41;;;;;;;;;;;;;;;27.08;32.99;100002.94;1086913;47;19938;-86
2023/07/08 08:02:45;;;;;;;;;;;;;;;27.02;33.49;100003.13;1086942;47;19942;-88
2023/07/08 08:03:52;;;;;;;;;;;;;;;27.15;33.38;99994.50;1087953;39;20151;-87
2023/07/08 08:04:53;;;;;;;;;;;;;;;27.26;33.18;100000.94;1087395;39;20965;-86
2023/07/08 08:05:56;;;;;;;;;;;;;;;27.38;32.66;99995.31;1087172;47;19943;-88
2023/07/08 08:06:57;;;;;;;;;;;;;;;27.50;32.29;100006.19;1087335;54;19942;-86
2023/07/08 08:08:00;;;;;;;;;;;;;;;27.71;32.28;99996.22;1087175;47;19942;-89
2023/07/08 08:09:02;;;;;;;;;;;;;;;27.84;31.84;99995.81;1086835;47;19939;-86
2023/07/08 08:10:06;;;;;;;;;;;;;;;28.05;31.84;100003.38;1087019;47;19942;-87
2023/07/08 08:11:07;;;;;;;;;;;;;;;28.25;31.54;99997.22;1086979;54;19949;-86
2023/07/08 08:13:12;;;;;;;;;;;;;;;28.22;30.96;100003.28;1087805;54;19934;-87
2023/07/08 08:14:13;;;;;;;;;;;;;;;28.08;31.50;100000.97;1086907;46;19938;-89
2023/07/08 08:15:16;;;;;;;;;;;;;;;28.12;31.74;100001.25;1087632;54;19966;-88
2023/07/08 08:16:17;;;;;;;;;;;;;;;28.12;31.54;100007.59;1087286;54;19943;-87
2023/07/08 08:18:22;;;;;;;;;;;;;;;28.16;31.62;100007.91;1086597;54;19954;-88
2023/07/08 08:19:26;;;;;;;;;;;;;;;28.05;31.73;100004.22;1086970;47;19966;-86
2023/07/08 08:20:30;;;;;;;;;;;;;;;28.13;31.67;100002.91;1086874;47;19942;-85
2023/07/08 08:21:31;;;;;;;;;;;;;;;28.05;31.99;100001.47;1087020;54;19942;-87
2023/07/08 08:22:34;;;;;;;;;;;;;;;27.89;32.44;99996.91;1087651;39;20670;-86
2023/07/08 08:23:35;;;;;;;;;;;;;;;27.66;32.61;99994.25;1087197;54;19942;-87
2023/07/08 08:29:29;;;;;;;;;;;;;;;27.48;33.22;100014.69;1087270;54;20270;-88
2023/07/08 08:30:31;;;;;;;;;;;;;;;27.32;33.52;100008.16;1087386;47;19958;-88
2023/07/08 08:31:34;;;;;;;;;;;;;;;27.42;33.66;100012.09;1088860;46;19966;-87
2023/07/08 08:32:35;;;;;;;;;;;;;;;27.46;33.44;100007.75;1087086;54;19942;-86
2023/07/08 08:33:39;;;;;;;;;;;;;;;27.62;33.57;100014.25;1086953;47;19995;-87
2023/07/08 08:34:44;;;;;;;;;;;;;;;27.79;33.16;100014.16;1087032;54;20815;-87
2023/07/08 08:35:47;;;;;;;;;;;;;;;27.93;33.03;100014.53;1087018;47;19942;-86
2023/07/08 08:36:48;;;;;;;;;;;;;;;28.13;32.77;100013.91;1087029;54;19947;-87
2023/07/08 08:37:53;;;;;;;;;;;;;;;28.28;32.67;100010.44;1086975;47;19943;-84
2023/07/08 08:38:53;;;;;;;;;;;;;;;28.52;32.53;100004.56;1086930;47;19942;-85
2023/07/08 08:39:57;;;;;;;;;;;;;;;28.66;32.26;99999.44;1086970;54;19942;-86
2023/07/08 08:40:58;;;;;;;;;;;;;;;28.78;32.21;100003.66;1087207;54;20028;-85
2023/07/08 08:42:02;;;;;;;;;;;;;;;28.76;32.21;100003.06;1086925;47;21014;-86
2023/07/08 08:43:04;;;;;;;;;;;;;;;28.85;32.16;100003.41;1086973;47;19965;-87
2023/07/08 08:44:08;;;;;;;;;;;;;;;28.87;32.42;100001.19;1086856;47;20052;-86
2023/07/08 08:45:13;;;;;;;;;;;;;;;28.94;32.28;100010.06;1088927;39;20204;-87
2023/07/08 08:46:21;;;;;;;;;;;;;;;28.73;32.63;100009.09;1086818;54;20276;-86
2023/07/08 08:47:26;;;;;;;;;;;;;;;28.55;32.69;100021.38;1086990;47;19966;-87
2023/07/08 08:48:31;;;;;;;;;;;;;;;28.76;32.48;100011.31;1086827;54;19942;-87
2023/07/08 08:49:34;;;;;;;;;;;;;;;28.95;32.63;100002.63;1086971;47;19998;-84
2023/07/08 08:50:44;;;;;;;;;;;;;;;29.01;32.44;100009.78;1087021;54;19943;-86
2023/07/08 08:51:45;;;;;;;;;;;;;;;29.09;32.44;100009.28;1087004;47;19942;-85
2023/07/08 08:52:49;;;;;;;;;;;;;;;29.17;32.57;100012.59;1086910;47;19949;-87
2023/07/08 08:53:52;;;;;;;;;;;;;;;29.25;32.10;100006.56;1086875;46;19942;-86
2023/07/08 08:54:55;;;;;;;;;;;;;;;29.04;32.13;100011.19;1086954;47;19967;-85
2023/07/08 08:56:00;;;;;;;;;;;;;;;29.26;32.17;100008.22;1086845;47;19942;-86
2023/07/08 08:57:09;;;;;;;;;;;;;;;29.00;32.46;100012.81;1087015;47;19995;-84
2023/07/08 08:58:16;;;;;;;;;;;;;;;28.92;32.43;100014.13;1086810;47;19942;-84
2023/07/08 08:59:27;;;;;;;;;;;;;;;29.23;32.17;100004.09;1086829;47;19991;-86
2023/07/08 09:00:30;;;;;;;;;;;;;;;29.43;32.43;100008.03;1086871;47;19943;-86
2023/07/08 09:01:33;;;;;;;;;;;;;;;29.47;32.03;100003.63;1086963;47;19942;-87
2023/07/08 09:02:43;;;;;;;;;;;;;;;29.41;32.13;99999.22;1086939;54;19942;-86
2023/07/08 09:03:51;;;;;;;;;;;;;;;29.53;32.29;100008.03;1086735;47;19942;-85
2023/07/08 09:04:52;;;;;;;;;;;;;;;29.87;31.84;100007.53;1086904;47;19942;-85
2023/07/08 09:06:00;;;;;;;;;;;;;;;29.80;31.39;100004.25;1087834;39;20160;-86
2023/07/08 09:07:07;;;;;;;;;;;;;;;29.55;31.77;99996.78;1086847;47;20355;-86
2023/07/08 09:08:15;;;;;;;;;;;;;;;29.55;31.74;100005.84;1086892;47;19958;-84
2023/07/08 09:09:19;;;;;;;;;;;;;;;29.81;31.33;100003.13;1086904;47;19950;-85
2023/07/08 09:10:27;;;;;;;;;;;;;;;29.99;31.50;99996.28;1086985;47;19994;-86
2023/07/08 09:11:36;;;;;;;;;;;;;;;29.84;31.63;100001.75;1087103;54;19966;-85
2023/07/08 09:12:39;;;;;;;;;;;;;;;29.91;31.46;100001.47;1087167;47;21348;-89
2023/07/08 09:14:44;;;;;;;;;;;;;;;30.17;31.02;99999.56;1086698;54;19931;-85
2023/07/08 09:15:45;;;;;;;;;;;;;;;30.12;31.18;100002.34;1090212;39;20216;-86
2023/07/08 09:16:52;;;;;;;;;;;;;;;30.27;30.86;99996.00;1086860;47;19942;-87
2023/07/08 09:17:57;;;;;;;;;;;;;;;30.43;30.66;99996.75;1086933;47;20014;-86
2023/07/08 09:19:02;;;;;;;;;;;;;;;30.37;30.66;99993.19;1086824;47;19943;-85
2023/07/08 09:20:06;;;;;;;;;;;;;;;30.53;30.70;99984.94;1086974;47;19947;-85
2023/07/08 09:21:16;;;;;;;;;;;;;;;30.72;30.56;99987.91;1086870;47;19943;-85
2023/07/08 09:22:19;;;;;;;;;;;;;;;30.98;30.17;99985.06;1086935;54;19954;-85
2023/07/08 09:23:24;;;;;;;;;;;;;;;31.12;30.11;99988.88;1087104;54;19967;-86
2023/07/08 09:24:29;;;;;;;;;;;;;;;31.22;29.55;99983.28;1087256;54;20885;-86
2023/07/08 09:25:35;;;;;;;;;;;;;;;31.27;29.85;99988.78;1086873;47;19994;-86
2023/07/08 09:26:36;;;;;;;;;;;;;;;31.33;29.18;99981.28;1086914;47;19943;-86
2023/07/08 09:27:39;;;;;;;;;;;;;;;31.46;29.16;99981.78;1086720;47;19950;-85
2023/07/08 09:28:41;;;;;;;;;;;;;;;31.52;29.14;99981.47;1086886;54;19942;-86
2023/07/08 09:29:45;;;;;;;;;;;;;;;31.61;29.24;99981.66;1087282;47;19943;-87
2023/07/08 09:30:47;;;;;;;;;;;;;;;31.59;28.98;99984.72;1087564;39;21083;-85
2023/07/08 09:31:51;;;;;;;;;;;;;;;31.39;29.05;99982.94;1090148;39;20551;-84
2023/07/08 09:32:51;;;;;;;;;;;;;;;31.24;28.96;99977.47;1086792;47;19978;-85
2023/07/08 09:33:55;;;;;;;;;;;;;;;30.75;29.74;99974.38;1086821;54;19958;-86
2023/07/08 09:35:02;;;;;;;;;;;;;;;31.15;29.41;99971.75;1086875;47;19942;-85
2023/07/08 09:36:18;;;;;;;;;;;;;;;31.38;28.97;99975.75;1086880;47;20029;-84
2023/07/08 09:37:25;;;;;;;;;;;;;;;31.68;28.50;99975.84;1089290;39;20197;-86
2023/07/08 09:38:29;;;;;;;;;;;;;;;31.15;29.38;99985.56;1089521;39;20155;-84
2023/07/08 09:39:30;;;;;;;;;;;;;;;31.46;28.93;99974.31;1087043;54;19973;-87
2023/07/08 09:41:36;;;;;;;;;;;;;;;31.45;28.68;99983.72;1087510;54;20046;-84
2023/07/08 09:42:37;;;;;;;;;;;;;;;31.55;28.82;99978.09;1087078;54;19943;-86
2023/07/08 09:43:41;;;;;;;;;;;;;;;31.74;28.90;99981.03;1087307;47;19942;-87
2023/07/08 09:44:44;;;;;;;;;;;;;;;31.76;28.64;99989.03;1087067;54;19934;-87
2023/07/08 09:45:48;;;;;;;;;;;;;;;31.95;28.04;99985.56;1087145;54;19942;-85
2023/07/08 09:46:49;;;;;;;;;;;;;;;32.04;28.16;99972.78;1086875;47;19942;-85
2023/07/08 09:47:54;;;;;;;;;;;;;;;32.24;27.75;99985.63;1087790;39;20566;-87
2023/07/08 09:50:02;;;;;;;;;;;;;;;32.60;27.33;99984.41;1087113;54;20312;-85
2023/07/08 09:51:04;;;;;;;;;;;;;;;32.75;27.36;99973.16;1087186;54;19942;-85
2023/07/08 09:52:07;;;;;;;;;;;;;;;32.83;26.96;99982.78;1086914;47;19970;-86
2023/07/08 09:53:14;;;;;;;;;;;;;;;32.72;26.45;99979.28;1087362;54;19927;-87
2023/07/08 09:54:17;;;;;;;;;;;;;;;32.81;26.47;99976.72;1087070;47;19943;-87
2023/07/08 09:55:18;;;;;;;;;;;;;;;32.76;26.69;99977.59;1089056;39;21141;-89
2023/07/08 09:56:21;;;;;;;;;;;;;;;32.94;26.74;99976.00;1087538;47;19949;-90
2023/07/08 09:57:26;;;;;;;;;;;;;;;32.54;26.98;99977.28;1087439;47;19990;-85
2023/07/08 09:58:32;;;;;;;;;;;;;;;32.51;27.19;99976.75;1087198;54;20004;-89
2023/07/08 09:59:39;;;;;;;;;;;;;;;32.16;27.47;99986.22;1087208;54;19967;-84
2023/07/08 10:00:43;;;;;;;;;;;;;;;32.15;27.85;99982.63;1086955;54;20024;-85
2023/07/08 10:01:44;;;;;;;;;;;;;;;32.33;27.64;99988.56;1086451;47;20329;-86
2023/07/08 10:02:49;;;;;;;;;;;;;;;32.17;27.68;99987.84;1086844;47;19942;-83
2023/07/08 10:03:50;;;;;;;;;;;;;;;32.34;27.28;99984.69;1086714;54;19954;-81
2023/07/08 10:04:52;;;;;;;;;;;;;;;32.53;27.25;99983.94;1086802;47;19978;-86
2023/07/08 10:07:10;;;;;;;;;;;;;;;32.24;27.31;99987.53;1086815;54;19943;-86
2023/07/08 10:08:12;;;;;;;;;;;;;;;32.49;27.35;99987.31;1082619;47;19939;31
2023/07/08 10:09:22;;;;;;;;;;;;;;;32.44;26.99;99979.03;1087164;47;19922;-85
2023/07/08 10:10:23;;;;;;;;;;;;;;;31.92;27.16;99986.16;1082203;47;19954;-87
2023/07/08 10:12:33;;;;;;;;;;;;;;;32.36;27.02;99990.75;1087614;54;19934;-85
2023/07/08 10:13:38;;;;;;;;;;;;;;;32.70;26.77;99978.75;1087066;47;19954;-85
2023/07/08 10:14:43;;;;;;;;;;;;;;;32.59;26.81;99982.78;1087254;54;19942;-85
2023/07/08 10:15:46;;;;;;;;;;;;;;;32.71;26.69;99979.59;1087172;47;19965;-84
2023/07/08 10:16:49;;;;;;;;;;;;;;;32.88;26.21;99976.34;1087158;54;19942;-86
2023/07/08 10:17:50;;;;;;;;;;;;;;;33.08;26.24;99978.03;1087075;47;19942;-83
2023/07/08 10:18:53;;;;;;;;;;;;;;;33.30;25.78;99980.22;1087171;47;19954;-86
2023/07/08 10:19:55;;;;;;;;;;;;;;;33.53;25.71;99966.63;1087212;54;19943;-84
2023/07/08 10:21:02;;;;;;;;;;;;;;;33.71;25.66;99968.56;1087082;47;19942;-86
2023/07/08 10:23:16;;;;;;;;;;;;;;;33.93;25.12;99969.06;1087645;54;19943;-85
2023/07/08 10:24:28;;;;;;;;;;;;;;;34.01;24.92;99969.16;1086883;47;19943;-85
2023/07/08 10:25:39;;;;;;;;;;;;;;;34.23;24.75;99956.56;1087076;47;20892;-85
2023/07/08 10:26:40;;;;;;;;;;;;;;;34.28;24.76;99956.50;1087091;47;19942;-83
2023/07/08 10:27:50;;;;;;;;;;;;;;;34.36;24.51;99950.22;1088029;39;20108;-84
2023/07/08 10:28:56;;;;;;;;;;;;;;;34.46;23.97;99952.00;1087539;47;19942;-87
2023/07/08 10:30:02;;;;;;;;;;;;;;;34.06;24.51;99958.00;1087245;54;19950;-83
2023/07/08 10:31:10;;;;;;;;;;;;;;;34.14;24.50;99948.16;1087383;54;19950;-83
2023/07/08 10:32:17;;;;;;;;;;;;;;;34.25;24.48;99948.78;1087184;47;20015;-83
2023/07/08 10:33:31;;;;;;;;;;;;;;;34.11;24.77;99947.91;1087185;54;20136;-86
2023/07/08 10:34:42;;;;;;;;;;;;;;;34.02;24.42;99943.09;1087096;47;19943;-84
2023/07/08 10:35:49;;;;;;;;;;;;;;;34.02;24.31;99940.31;1087043;47;20029;-85
2023/07/08 10:36:54;;;;;;;;;;;;;;;33.98;24.65;99942.06;1087199;54;20002;-83
2023/07/08 10:38:04;;;;;;;;;;;;;;;34.26;24.44;99946.81;1087438;54;19942;-83
2023/07/08 10:40:24;;;;;;;;;;;;;;;34.36;24.34;99944.69;1087726;54;19935;-89
2023/07/08 10:41:29;;;;;;;;;;;;;;;34.53;23.96;99948.81;1086968;47;19966;-83
2023/07/08 10:42:39;;;;;;;;;;;;;;;34.13;24.63;99948.44;1087322;54;19949;-85
2023/07/08 10:43:46;;;;;;;;;;;;;;;34.50;23.91;99949.41;1087110;47;20796;-85
2023/07/08 10:45:58;;;;;;;;;;;;;;;34.08;24.39;99934.69;1087817;54;19942;-83
2023/07/08 10:47:05;;;;;;;;;;;;;;;34.49;24.03;99939.44;1086852;47;19961;-85
2023/07/08 10:48:22;;;;;;;;;;;;;;;34.59;24.11;99935.66;1088413;39;20241;-86
2023/07/08 10:49:40;;;;;;;;;;;;;;;34.73;23.93;99939.22;1087038;47;19958;-86
2023/07/08 10:51:01;;;;;;;;;;;;;;;34.81;23.69;99932.94;1087611;39;20965;-85
2023/07/08 10:52:08;;;;;;;;;;;;;;;34.86;24.03;99942.31;1087918;46;19942;-86
2023/07/08 10:53:30;;;;;;;;;;;;;;;34.93;23.91;99940.81;1087149;47;19942;-86
2023/07/08 10:54:42;;;;;;;;;;;;;;;35.02;23.33;99937.28;1087007;47;20713;-86
2023/07/08 10:55:54;;;;;;;;;;;;;;;34.77;24.14;99937.50;1087187;47;19942;-85
2023/07/08 10:56:58;;;;;;;;;;;;;;;34.98;23.52;99937.09;1087102;47;19966;-84
2023/07/08 10:58:16;;;;;;;;;;;;;;;34.57;23.87;99930.44;1087101;47;19947;-85
2023/07/08 10:59:25;;;;;;;;;;;;;;;34.72;24.09;99923.72;1087097;47;19950;-85
2023/07/08 11:00:33;;;;;;;;;;;;;;;34.86;23.98;99928.44;1087300;54;20027;-84
2023/07/08 11:01:40;;;;;;;;;;;;;;;34.74;23.80;99928.97;1087846;54;19933;-87
2023/07/08 11:02:58;;;;;;;;;;;;;;;34.83;23.85;99922.38;1086885;47;19969;-85
2023/07/08 11:04:06;;;;;;;;;;;;;;;35.03;23.55;99923.06;1087052;47;19961;-85
2023/07/08 11:05:17;;;;;;;;;;;;;;;34.75;23.75;99922.28;1086966;47;20378;-84
2023/07/08 11:06:20;;;;;;;;;;;;;;;34.87;23.84;99925.34;1086774;47;19938;-84
2023/07/08 11:07:31;;;;;;;;;;;;;;;34.83;23.94;99925.13;1087081;47;19949;-85